createdAt,value
2019-03-20T00:00:39.293Z,4.50
2019-03-20T00:03:07.441Z,4.07
2019-03-20T00:05:35.657Z,4.40
2019-03-20T00:08:04.323Z,4.83
2019-03-20T00:10:33.131Z,4.03
2019-03-20T00:13:02.758Z,4.13
2019-03-20T00:15:30.929Z,4.07
2019-03-20T00:17:58.920Z,4.53
2019-03-20T00:20:27.760Z,4.90
2019-03-20T00:22:56.367Z,4.17
2019-03-20T00:25:24.570Z,4.00
2019-03-20T00:27:54.339Z,3.97
2019-03-20T00:30:23.009Z,4.13
2019-03-20T00:32:51.783Z,3.93
2019-03-20T00:35:20.061Z,3.50
2019-03-20T00:37:48.170Z,4.40
2019-03-20T00:40:16.283Z,3.83
2019-03-20T00:42:44.335Z,3.03
2019-03-20T00:45:12.604Z,4.43
2019-03-20T00:47:42.263Z,4.23
2019-03-20T00:50:11.827Z,4.37
2019-03-20T00:52:39.925Z,3.73
2019-03-20T00:55:08.093Z,3.53
2019-03-20T00:57:36.238Z,4.90
2019-03-20T01:00:04.717Z,3.83
2019-03-20T01:02:32.782Z,5.40
2019-03-20T01:05:08.492Z,3.83
2019-03-20T01:07:30.514Z,4.37
2019-03-20T01:09:58.778Z,4.20
2019-03-20T01:12:26.857Z,4.50
2019-03-20T01:14:55.027Z,4.13
2019-03-20T01:17:23.042Z,3.57
2019-03-20T01:19:51.152Z,3.70
2019-03-20T01:22:19.213Z,4.37
2019-03-20T01:24:47.219Z,4.27
2019-03-20T01:27:15.283Z,4.63
2019-03-20T01:29:43.365Z,4.57
2019-03-20T01:32:11.412Z,4.03
2019-03-20T01:34:39.404Z,3.80
2019-03-20T01:37:07.832Z,3.50
2019-03-20T01:39:36.053Z,3.40
2019-03-20T01:42:04.051Z,4.30
2019-03-20T01:44:32.107Z,3.80
2019-03-20T01:47:00.172Z,4.07
2019-03-20T01:49:28.226Z,4.40
2019-03-20T01:51:56.627Z,4.33
2019-03-20T01:54:24.690Z,3.93
2019-03-20T01:56:52.704Z,3.87
2019-03-20T01:59:20.859Z,3.60
2019-03-20T02:01:49.028Z,4.00
2019-03-20T02:04:17.092Z,5.77
2019-03-20T02:06:45.077Z,4.50
2019-03-20T02:09:13.269Z,4.63
2019-03-20T02:11:41.401Z,4.40
2019-03-20T02:14:09.447Z,4.13
2019-03-20T02:16:38.837Z,4.00
2019-03-20T02:19:06.835Z,4.37
2019-03-20T02:21:34.862Z,4.07
2019-03-20T02:24:02.922Z,4.03
2019-03-20T02:26:31.042Z,3.40
2019-03-20T02:28:59.067Z,5.23
2019-03-20T02:31:27.229Z,4.10
2019-03-20T02:33:55.383Z,3.53
2019-03-20T02:36:23.329Z,3.60
2019-03-20T02:38:51.371Z,3.87
2019-03-20T02:41:19.364Z,4.77
2019-03-20T02:43:47.449Z,4.07
2019-03-20T02:46:15.435Z,3.63
2019-03-20T02:48:43.496Z,4.50
2019-03-20T02:51:14.063Z,3.67
2019-03-20T02:53:42.151Z,3.90
2019-03-20T02:56:10.189Z,4.00
2019-03-20T02:58:38.223Z,4.00
2019-03-20T03:01:06.336Z,3.77
2019-03-20T03:03:34.329Z,4.00
2019-03-20T03:06:07.059Z,3.77
2019-03-20T03:08:32.005Z,3.73
2019-03-20T03:11:00.118Z,3.90
2019-03-20T03:13:28.183Z,4.70
2019-03-20T03:15:56.199Z,4.03
2019-03-20T03:18:24.288Z,3.50
2019-03-20T03:20:52.376Z,4.30
2019-03-20T03:23:20.380Z,4.30
2019-03-20T03:25:50.192Z,4.93
2019-03-20T03:28:18.139Z,4.40
2019-03-20T03:30:46.671Z,4.00
2019-03-20T03:33:14.829Z,4.73
2019-03-20T03:35:43.023Z,3.97
2019-03-20T03:38:12.070Z,4.20
2019-03-20T03:40:40.135Z,3.57
2019-03-20T03:43:08.204Z,5.03
2019-03-20T03:45:36.217Z,3.83
2019-03-20T03:48:04.639Z,4.17
2019-03-20T03:50:32.679Z,4.33
2019-03-20T03:53:00.723Z,4.10
2019-03-20T03:55:28.723Z,4.67
2019-03-20T03:57:56.804Z,4.27
2019-03-20T04:00:24.821Z,3.60
2019-03-20T04:02:52.840Z,3.67
2019-03-20T04:05:20.977Z,4.03
2019-03-20T04:07:48.989Z,4.20
2019-03-20T04:10:17.029Z,3.70
2019-03-20T04:12:45.648Z,4.50
2019-03-20T04:15:13.651Z,4.00
2019-03-20T04:17:41.699Z,4.70
2019-03-20T04:20:10.393Z,4.63
2019-03-20T04:22:38.508Z,4.53
2019-03-20T04:25:07.087Z,4.90
2019-03-20T04:27:35.057Z,4.10
2019-03-20T04:30:03.147Z,4.20
2019-03-20T04:32:31.107Z,5.57
2019-03-20T04:34:59.253Z,5.27
2019-03-20T04:37:27.339Z,5.03
2019-03-20T04:39:55.504Z,4.80
2019-03-20T04:42:23.561Z,4.80
2019-03-20T04:44:51.582Z,5.30
2019-03-20T04:47:19.659Z,5.40
2019-03-20T04:49:47.674Z,4.93
2019-03-20T04:52:15.695Z,4.93
2019-03-20T04:54:43.771Z,4.43
2019-03-20T04:57:11.909Z,4.63
2019-03-20T04:59:39.875Z,5.30
2019-03-20T05:02:07.948Z,4.97
2019-03-20T05:04:36.021Z,5.97
2019-03-20T05:07:04.111Z,4.03
2019-03-20T05:09:32.114Z,4.50
2019-03-20T05:12:00.133Z,5.10
2019-03-20T05:14:28.182Z,5.07
2019-03-20T05:16:56.317Z,5.60
2019-03-20T05:19:24.421Z,5.60
2019-03-20T05:21:52.545Z,6.43
2019-03-20T05:24:22.821Z,5.33
2019-03-20T05:26:51.756Z,5.00
2019-03-20T05:29:19.982Z,4.93
2019-03-20T05:31:48.079Z,6.00
2019-03-20T05:34:16.135Z,5.13
2019-03-20T05:36:45.012Z,5.97
2019-03-20T05:39:15.684Z,6.17
2019-03-20T05:41:42.973Z,6.33
2019-03-20T05:44:11.065Z,6.20
2019-03-20T05:46:39.366Z,7.17
2019-03-20T05:49:07.462Z,6.60
2019-03-20T05:51:35.640Z,6.20
2019-03-20T05:54:03.729Z,6.33
2019-03-20T05:56:31.831Z,4.90
2019-03-20T05:58:59.894Z,4.87
2019-03-20T06:01:28.315Z,3.90
2019-03-20T06:03:56.464Z,4.77
2019-03-20T06:06:24.539Z,3.87
2019-03-20T06:08:52.605Z,4.07
2019-03-20T06:11:20.694Z,4.60
2019-03-20T06:13:48.730Z,4.17
2019-03-20T06:16:16.801Z,5.57
2019-03-20T06:18:44.921Z,5.00
2019-03-20T06:21:13.106Z,6.45
2019-03-20T06:23:41.630Z,5.53
2019-03-20T06:26:09.867Z,9.87
2019-03-20T06:28:37.898Z,5.43
2019-03-20T06:31:06.379Z,5.63
2019-03-20T06:33:34.419Z,6.07
2019-03-20T06:36:02.418Z,6.83
2019-03-20T06:38:30.472Z,5.63
2019-03-20T06:40:59.096Z,4.50
2019-03-20T06:43:27.176Z,5.47
2019-03-20T06:45:59.666Z,4.73
2019-03-20T06:48:27.748Z,5.07
2019-03-20T06:50:55.944Z,5.20
2019-03-20T06:53:25.268Z,5.43
2019-03-20T06:55:53.319Z,5.43
2019-03-20T06:58:21.750Z,4.27
2019-03-20T07:00:59.508Z,5.37
2019-03-20T07:03:48.343Z,5.30
2019-03-20T07:06:22.924Z,5.23
2019-03-20T07:08:59.492Z,4.90
2019-03-20T07:11:26.717Z,4.60
2019-03-20T07:13:54.868Z,5.57
2019-03-20T07:16:22.806Z,6.00
2019-03-20T07:18:50.809Z,6.37
2019-03-20T07:21:18.939Z,6.10
2019-03-20T07:23:46.974Z,6.03
2019-03-20T07:26:16.004Z,5.37
2019-03-20T07:28:44.002Z,6.20
2019-03-20T07:31:15.749Z,5.47
2019-03-20T07:33:41.705Z,5.37
2019-03-20T07:36:09.769Z,4.57
2019-03-20T07:38:37.811Z,6.03
2019-03-20T07:41:05.817Z,5.07
2019-03-20T07:43:33.910Z,4.43
2019-03-20T07:46:02.269Z,4.30
2019-03-20T07:48:30.412Z,5.10
2019-03-20T07:50:58.517Z,3.90
2019-03-20T07:53:26.593Z,3.83
2019-03-20T07:55:54.633Z,3.37
2019-03-20T07:58:22.712Z,3.87
2019-03-20T08:00:52.692Z,4.87
2019-03-20T08:03:20.815Z,3.87
2019-03-20T08:05:48.883Z,3.30
2019-03-20T08:08:16.913Z,3.20
2019-03-20T08:10:44.949Z,2.97
2019-03-20T08:13:13.051Z,3.57
2019-03-20T08:15:41.117Z,3.80
2019-03-20T08:18:09.107Z,3.33
2019-03-20T08:20:37.192Z,3.83
2019-03-20T08:23:05.148Z,2.93
2019-03-20T08:25:33.262Z,3.37
2019-03-20T08:28:01.264Z,3.20
2019-03-20T08:30:29.289Z,4.20
2019-03-20T08:32:57.329Z,2.80
2019-03-20T08:35:25.359Z,3.00
2019-03-20T08:37:53.379Z,3.33
2019-03-20T08:40:21.410Z,5.23
2019-03-20T08:42:49.560Z,3.37
2019-03-20T08:45:17.624Z,3.53
2019-03-20T08:47:45.615Z,3.10
2019-03-20T08:50:14.927Z,2.90
2019-03-20T08:52:43.022Z,2.63
2019-03-20T08:55:11.164Z,2.50
2019-03-20T08:57:39.300Z,3.00
2019-03-20T09:00:08.462Z,2.90
2019-03-20T09:02:36.504Z,2.70
2019-03-20T09:05:05.020Z,2.80
2019-03-20T09:07:33.215Z,2.63
2019-03-20T09:10:01.227Z,2.40
2019-03-20T09:12:29.316Z,3.03
2019-03-20T09:14:57.269Z,3.00
2019-03-20T09:17:25.296Z,2.40
2019-03-20T09:19:53.326Z,3.03
2019-03-20T09:22:21.350Z,3.33
2019-03-20T09:24:49.435Z,3.40
2019-03-20T09:27:17.524Z,3.60
2019-03-20T09:29:45.532Z,2.10
2019-03-20T09:32:13.615Z,2.93
2019-03-20T09:34:41.635Z,2.30
2019-03-20T09:37:09.598Z,2.70
2019-03-20T09:39:37.835Z,1.90
2019-03-20T09:42:05.931Z,2.47
2019-03-20T09:44:34.030Z,2.93
2019-03-20T09:47:02.043Z,3.70
2019-03-20T09:49:30.134Z,2.83
2019-03-20T09:51:58.187Z,2.67
2019-03-20T09:54:26.199Z,3.20
2019-03-20T09:56:54.258Z,2.50
2019-03-20T09:59:22.368Z,3.27
2019-03-20T10:01:50.380Z,3.83
2019-03-20T10:04:18.348Z,3.40
2019-03-20T10:06:46.526Z,5.07
2019-03-20T10:09:20.296Z,4.80
2019-03-20T10:11:48.323Z,4.17
2019-03-20T10:14:16.367Z,4.40
2019-03-20T10:16:44.377Z,4.97
2019-03-20T10:19:12.427Z,5.83
2019-03-20T10:21:42.517Z,5.17
2019-03-20T10:24:10.460Z,5.80
2019-03-20T10:26:38.562Z,5.47
2019-03-20T10:29:06.740Z,5.80
2019-03-20T10:31:34.769Z,6.30
2019-03-20T10:34:03.007Z,6.00
2019-03-20T10:36:31.103Z,6.80
2019-03-20T10:39:06.563Z,6.70
2019-03-20T10:41:29.002Z,6.53
2019-03-20T10:43:58.206Z,5.47
2019-03-20T10:46:26.469Z,5.03
2019-03-20T10:48:56.331Z,5.67
2019-03-20T10:51:24.225Z,5.43
2019-03-20T10:53:52.356Z,5.27
2019-03-20T10:56:20.401Z,7.20
2019-03-20T10:58:48.546Z,6.00
2019-03-20T11:01:16.550Z,6.43
2019-03-20T11:03:44.685Z,6.10
2019-03-20T11:06:12.713Z,6.00
2019-03-20T11:08:40.803Z,5.70
2019-03-20T11:11:09.076Z,6.73
2019-03-20T11:13:37.487Z,6.30
2019-03-20T11:16:05.479Z,8.47
2019-03-20T11:18:33.519Z,6.37
2019-03-20T11:21:01.671Z,6.23
2019-03-20T11:23:29.732Z,6.03
2019-03-20T11:25:59.914Z,6.63
2019-03-20T11:28:27.433Z,6.57
2019-03-20T11:30:56.118Z,6.80
2019-03-20T11:33:24.234Z,8.30
2019-03-20T11:35:52.264Z,7.00
2019-03-20T11:38:20.308Z,6.30
2019-03-20T11:40:48.274Z,7.07
2019-03-20T11:43:16.323Z,7.93
2019-03-20T11:45:44.397Z,8.50
2019-03-20T11:48:12.499Z,8.63
2019-03-20T11:50:40.506Z,9.73
2019-03-20T11:53:08.530Z,9.57
2019-03-20T11:55:36.793Z,8.33
2019-03-20T11:58:04.918Z,7.97
2019-03-20T12:00:32.938Z,8.87
2019-03-20T12:03:00.935Z,9.60
2019-03-20T12:05:28.990Z,8.83
2019-03-20T12:07:57.049Z,9.83
2019-03-20T12:10:25.142Z,10.13
2019-03-20T12:12:53.204Z,10.93
2019-03-20T12:15:21.257Z,10.77
2019-03-20T12:17:49.306Z,10.43
2019-03-20T12:20:17.932Z,11.70
2019-03-20T12:22:46.042Z,9.60
2019-03-20T12:25:18.148Z,10.10
2019-03-20T12:27:46.207Z,11.13
2019-03-20T12:30:15.395Z,10.57
2019-03-20T12:32:43.599Z,10.70
2019-03-20T12:35:11.973Z,11.20
2019-03-20T12:37:40.014Z,11.53
2019-03-20T12:40:10.643Z,11.77
2019-03-20T12:42:38.605Z,11.30
2019-03-20T12:45:09.126Z,10.33
2019-03-20T12:47:37.205Z,12.70
2019-03-20T12:50:05.302Z,10.83
2019-03-20T12:52:33.348Z,10.40
2019-03-20T12:55:01.417Z,12.10
2019-03-20T12:57:29.525Z,11.00
2019-03-20T12:59:57.641Z,11.20
2019-03-20T13:02:25.771Z,12.77
2019-03-20T13:04:53.933Z,12.40
2019-03-20T13:07:22.011Z,11.87
2019-03-20T13:09:50.016Z,11.37
2019-03-20T13:12:18.091Z,11.57
2019-03-20T13:14:46.369Z,11.87
2019-03-20T13:17:15.267Z,11.40
2019-03-20T13:19:43.331Z,13.00
2019-03-20T13:22:11.416Z,11.77
2019-03-20T13:24:39.499Z,11.87
2019-03-20T13:27:07.485Z,11.70
2019-03-20T13:29:35.537Z,12.63
2019-03-20T13:32:03.794Z,11.90
2019-03-20T13:34:31.846Z,12.17
2019-03-20T13:36:59.909Z,12.37
2019-03-20T13:39:27.954Z,13.90
2019-03-20T13:41:55.997Z,12.30
2019-03-20T13:44:24.029Z,11.60
2019-03-20T13:46:52.133Z,12.83
2019-03-20T13:49:20.174Z,11.57
2019-03-20T13:51:48.190Z,12.67
2019-03-20T13:54:16.219Z,12.60
2019-03-20T13:56:44.212Z,14.10
2019-03-20T13:59:12.219Z,13.67
2019-03-20T14:01:42.588Z,12.57
2019-03-20T14:04:10.979Z,13.90
2019-03-20T14:06:40.248Z,11.93
2019-03-20T14:09:08.490Z,10.87
2019-03-20T14:11:36.486Z,12.77
2019-03-20T14:14:04.615Z,11.63
2019-03-20T14:16:32.592Z,11.17
2019-03-20T14:19:00.595Z,10.37
2019-03-20T14:21:28.690Z,9.40
2019-03-20T14:23:56.672Z,10.80
2019-03-20T14:26:24.689Z,10.57
2019-03-20T14:28:52.843Z,12.63
2019-03-20T14:31:20.918Z,10.10
2019-03-20T14:33:49.127Z,11.63
2019-03-20T14:36:17.265Z,10.97
2019-03-20T14:38:45.566Z,10.40
2019-03-20T14:41:21.187Z,11.57
2019-03-20T14:43:43.339Z,11.07
2019-03-20T14:46:11.556Z,11.10
2019-03-20T14:48:40.262Z,9.63
2019-03-20T14:51:08.385Z,9.50
2019-03-20T14:53:36.436Z,9.27
2019-03-20T14:56:08.830Z,9.27
2019-03-20T14:58:36.848Z,10.83
2019-03-20T15:01:04.932Z,9.77
2019-03-20T15:03:32.957Z,8.33
2019-03-20T15:06:00.959Z,9.47
2019-03-20T15:08:28.955Z,8.20
2019-03-20T15:10:57.037Z,8.23
2019-03-20T15:13:25.028Z,8.17
2019-03-20T15:15:57.516Z,8.07
2019-03-20T15:18:25.567Z,8.03
2019-03-20T15:20:53.643Z,7.83
2019-03-20T15:23:21.611Z,7.97
2019-03-20T15:25:49.806Z,8.50
2019-03-20T15:28:17.871Z,8.30
2019-03-20T15:30:45.808Z,7.13
2019-03-20T15:33:13.883Z,7.27
2019-03-20T15:35:41.893Z,7.97
2019-03-20T15:38:09.918Z,6.60
2019-03-20T15:40:37.889Z,6.83
2019-03-20T15:43:05.956Z,7.00
2019-03-20T15:45:33.984Z,6.40
2019-03-20T15:48:02.027Z,6.80
2019-03-20T15:50:30.920Z,6.77
2019-03-20T15:52:59.161Z,7.10
2019-03-20T15:55:27.921Z,6.43
2019-03-20T15:57:55.956Z,8.20
2019-03-20T16:00:24.198Z,8.00
2019-03-20T16:02:52.756Z,6.70
2019-03-20T16:05:20.829Z,8.87
2019-03-20T16:07:48.910Z,7.73
2019-03-20T16:10:17.833Z,7.50
2019-03-20T16:12:46.211Z,7.33
2019-03-20T16:15:15.236Z,8.93
2019-03-20T16:17:43.519Z,6.87
2019-03-20T16:20:11.747Z,7.60
2019-03-20T16:22:39.735Z,8.60
2019-03-20T16:25:08.506Z,7.80
2019-03-20T16:27:36.793Z,6.37
2019-03-20T16:30:06.356Z,6.83
2019-03-20T16:32:35.651Z,7.03
2019-03-20T16:35:03.776Z,6.50
2019-03-20T16:37:32.924Z,7.17
2019-03-20T16:40:01.120Z,7.83
2019-03-20T16:42:30.922Z,7.50
2019-03-20T16:44:58.999Z,7.20
2019-03-20T16:47:27.420Z,7.50
2019-03-20T16:50:01.646Z,7.27
2019-03-20T16:52:30.542Z,7.60
2019-03-20T16:54:58.540Z,6.33
2019-03-20T16:57:27.211Z,6.40
2019-03-20T16:59:55.515Z,7.77
2019-03-20T17:02:25.743Z,6.93
2019-03-20T17:04:53.548Z,7.97
2019-03-20T17:07:22.262Z,7.93
2019-03-20T17:09:50.638Z,8.40
2019-03-20T17:12:18.884Z,9.93
2019-03-20T17:14:47.263Z,8.77
2019-03-20T17:17:15.339Z,10.10
2019-03-20T17:19:43.475Z,10.40
2019-03-20T17:22:18.692Z,11.30
2019-03-20T17:24:46.966Z,10.00
2019-03-20T17:27:16.292Z,11.00
2019-03-20T17:29:44.346Z,10.23
2019-03-20T17:32:12.399Z,9.50
2019-03-20T17:34:40.463Z,9.03
2019-03-20T17:37:08.531Z,9.03
2019-03-20T17:39:36.607Z,8.93
2019-03-20T17:42:04.624Z,9.90
2019-03-20T17:44:32.693Z,9.87
2019-03-20T17:47:00.853Z,9.30
2019-03-20T17:49:28.935Z,9.10
2019-03-20T17:51:56.976Z,9.50
2019-03-20T17:54:25.054Z,9.97
2019-03-20T17:56:53.211Z,8.80
2019-03-20T17:59:21.210Z,8.47
2019-03-20T18:01:49.249Z,9.20
2019-03-20T18:04:17.327Z,8.80
2019-03-20T18:06:45.377Z,9.80
2019-03-20T18:09:13.485Z,8.70
2019-03-20T18:11:47.421Z,11.10
2019-03-20T18:14:11.251Z,8.70
2019-03-20T18:16:39.382Z,8.67
2019-03-20T18:19:08.572Z,8.70
2019-03-20T18:21:36.756Z,6.87
2019-03-20T18:24:04.746Z,6.57
2019-03-20T18:26:32.793Z,6.83
2019-03-20T18:29:00.915Z,6.63
2019-03-20T18:31:29.012Z,6.97
2019-03-20T18:33:57.066Z,6.07
2019-03-20T18:36:26.236Z,6.20
2019-03-20T18:38:54.363Z,6.27
2019-03-20T18:41:22.494Z,6.60
2019-03-20T18:43:50.547Z,6.87
2019-03-20T18:46:18.766Z,5.20
2019-03-20T18:48:46.798Z,5.63
2019-03-20T18:51:14.776Z,4.90
2019-03-20T18:53:43.753Z,5.27
2019-03-20T18:56:11.675Z,5.83
2019-03-20T18:58:39.777Z,5.53
2019-03-20T19:01:10.031Z,6.28
2019-03-20T19:03:38.982Z,5.67
2019-03-20T19:06:08.602Z,4.93
2019-03-20T19:08:37.209Z,7.67
2019-03-20T19:11:05.305Z,5.30
2019-03-20T19:13:34.497Z,7.50
2019-03-20T19:16:02.659Z,5.63
2019-03-20T19:18:30.752Z,4.60
2019-03-20T19:20:58.930Z,4.93
2019-03-20T19:23:27.117Z,5.00
2019-03-20T19:25:55.304Z,5.07
2019-03-20T19:28:23.388Z,4.27
2019-03-20T19:30:51.502Z,6.07
2019-03-20T19:33:19.680Z,5.57
2019-03-20T19:35:48.098Z,6.07
2019-03-20T19:38:17.299Z,7.80
2019-03-20T19:40:45.526Z,5.63
2019-03-20T19:43:13.547Z,6.10
2019-03-20T19:45:41.609Z,6.77
2019-03-20T19:48:13.756Z,12.23
2019-03-20T19:50:41.388Z,6.50
2019-03-20T19:53:09.468Z,6.70
2019-03-20T19:55:42.695Z,6.17
2019-03-20T19:58:10.739Z,5.50
2019-03-20T20:00:38.819Z,6.00
2019-03-20T20:03:06.858Z,6.47
2019-03-20T20:05:40.162Z,6.40
2019-03-20T20:08:09.835Z,5.90
2019-03-20T20:10:38.244Z,6.00
2019-03-20T20:13:06.455Z,6.20
2019-03-20T20:15:35.974Z,6.30
2019-03-20T20:18:04.039Z,6.37
2019-03-20T20:20:32.032Z,5.93
2019-03-20T20:23:04.359Z,5.50
2019-03-20T20:25:33.206Z,5.23
2019-03-20T20:28:02.495Z,5.30
2019-03-20T20:30:31.509Z,5.80
2019-03-20T20:33:02.358Z,5.10
2019-03-20T20:35:32.763Z,5.37
2019-03-20T20:38:00.882Z,5.53
2019-03-20T20:40:29.107Z,4.47
2019-03-20T20:42:57.267Z,6.00
2019-03-20T20:45:25.334Z,10.27
2019-03-20T20:47:53.513Z,5.00
2019-03-20T20:50:21.683Z,5.17
2019-03-20T20:52:49.764Z,5.30
2019-03-20T20:55:17.910Z,6.33
2019-03-20T20:57:45.975Z,5.37
2019-03-20T21:00:15.528Z,4.87
2019-03-20T21:02:43.594Z,5.40
2019-03-20T21:05:11.654Z,5.03
2019-03-20T21:07:39.718Z,5.43
2019-03-20T21:10:08.075Z,5.10
2019-03-20T21:12:36.084Z,6.93
2019-03-20T21:15:04.534Z,5.87
2019-03-20T21:17:52.402Z,6.03
2019-03-20T21:20:20.657Z,6.92
2019-03-20T21:23:06.415Z,7.10
2019-03-20T21:25:34.727Z,6.10
2019-03-20T21:28:28.511Z,6.70
2019-03-20T21:30:59.524Z,6.20
2019-03-20T21:33:49.485Z,6.70
2019-03-20T21:36:55.002Z,6.60
2019-03-20T21:39:24.245Z,7.17
2019-03-20T21:42:17.219Z,6.93
2019-03-20T21:45:10.092Z,8.40
2019-03-20T21:47:37.991Z,8.97
2019-03-20T21:50:34.302Z,8.70
2019-03-20T21:53:02.710Z,9.03
2019-03-20T21:55:49.862Z,10.40
2019-03-20T21:58:23.647Z,10.20
2019-03-20T22:01:09.278Z,10.33
2019-03-20T22:03:38.543Z,9.90
2019-03-20T22:06:25.673Z,10.27
2019-03-20T22:08:54.036Z,9.83
2019-03-20T22:11:39.871Z,10.63
2019-03-20T22:14:09.415Z,10.00
2019-03-20T22:16:56.663Z,10.45
2019-03-20T22:19:28.179Z,11.15
2019-03-20T22:22:03.218Z,11.57
2019-03-20T22:24:47.160Z,10.80
2019-03-20T22:27:37.190Z,11.73
2019-03-20T22:30:06.221Z,11.63
2019-03-20T22:32:54.025Z,11.90
2019-03-20T22:35:34.288Z,10.78
2019-03-20T22:38:03.113Z,12.90
2019-03-20T22:40:56.524Z,12.57
2019-03-20T22:43:30.728Z,12.83
2019-03-20T22:46:09.343Z,11.90
2019-03-20T22:48:56.577Z,12.47
2019-03-20T22:51:42.125Z,12.73
2019-03-20T22:54:28.122Z,13.40
2019-03-20T22:57:11.837Z,13.10
2019-03-20T22:59:40.102Z,14.73
2019-03-20T23:02:36.180Z,13.20
2019-03-20T23:05:05.483Z,14.53
2019-03-20T23:07:33.766Z,16.37
2019-03-20T23:10:01.999Z,15.73
2019-03-20T23:12:30.271Z,15.00
2019-03-20T23:14:58.591Z,15.13
2019-03-20T23:17:26.856Z,15.50
2019-03-20T23:19:55.904Z,15.63
2019-03-20T23:22:24.234Z,17.40
2019-03-20T23:24:52.584Z,17.30
2019-03-20T23:27:38.765Z,17.60
2019-03-20T23:30:29.591Z,19.17
2019-03-20T23:32:57.874Z,17.37
2019-03-20T23:35:26.103Z,20.47
2019-03-20T23:37:54.456Z,18.60
2019-03-20T23:40:22.776Z,18.97
2019-03-20T23:42:51.081Z,19.10
2019-03-20T23:45:19.344Z,18.57
2019-03-20T23:47:49.506Z,19.17
2019-03-20T23:50:17.852Z,18.60
2019-03-20T23:52:46.107Z,18.67
2019-03-20T23:55:14.432Z,18.77
2019-03-20T23:57:42.844Z,18.27
